This is the latest recevied weather packets stored in our database for station/object N5PLO-10. If no packets are shown the sender has not sent any weather packets the latest 10 day(s).
| Time | Temp. | Humidity | Pressure | Rain* | Wind** | Luminosity | Snow |
|---|---|---|---|---|---|---|---|
| 1777321319 | 32.78° C | 67% | 1016.7 hPa | 0 mm | - | 267 W/m² | - |
| 1777321016 | 32.78° C | 65% | 1016.7 hPa | 0 mm | - | 249 W/m² | - |
| 1777320714 | 32.22° C | 67% | 1016.5 hPa | 0 mm | - | 250 W/m² | - |
| 1777320411 | 32.22° C | 66% | 1016.7 hPa | 0 mm | - | 217 W/m² | - |
| 1777320107 | 33.33° C | 66% | 1016.7 hPa | 0 mm | - | 178 W/m² | - |
| 1777319805 | 33.33° C | 65% | 1016.7 hPa | 0 mm | - | 281 W/m² | - |
| 1777319502 | 33.33° C | 64% | 1016.9 hPa | 0 mm | - | 224 W/m² | - |
| 1777319199 | 33.89° C | 62% | 1016.8 hPa | 0 mm | - | 241 W/m² | - |
| 1777318895 | 33.89° C | 63% | 1016.7 hPa | 0 mm | - | 671 W/m² | - |
| 1777318592 | 33.89° C | 65% | 1016.6 hPa | 0 mm | - | 649 W/m² | - |
| 1777318288 | 33.89° C | 65% | 1016.9 hPa | 0 mm | - | 694 W/m² | - |
| 1777317979 | 34.44° C | 62% | 1016.7 hPa | 0 mm | - | 435 W/m² | - |
| 1777317677 | 34.44° C | 63% | 1016.6 hPa | 0 mm | - | 282 W/m² | - |
| 1777317374 | 33.89° C | 64% | 1016.8 hPa | 0 mm | - | 276 W/m² | - |
| 1777317069 | 33.89° C | 63% | 1016.8 hPa | 0 mm | - | 671 W/m² | - |
| 1777316767 | 33.33° C | 64% | 1016.6 hPa | 0 mm | - | 794 W/m² | - |
| 1777316463 | 33.33° C | 64% | 1016.7 hPa | 0 mm | - | 756 W/m² | - |
| 1777316160 | 33.33° C | 65% | 1016.7 hPa | 0 mm | - | 387 W/m² | - |
| 1777315858 | 33.33° C | 65% | 1016.8 hPa | 0 mm | - | 456 W/m² | - |
| 1777315556 | 32.78° C | 67% | 1016.7 hPa | 0 mm | - | 706 W/m² | - |
| 1777315254 | 32.22° C | 70% | 1016.6 hPa | 0 mm | - | 295 W/m² | - |
| 1777314951 | 32.78° C | 69% | 1016.8 hPa | 0 mm | - | 329 W/m² | - |
| 1777314646 | 32.22° C | 70% | 1016.7 hPa | 0 mm | - | 764 W/m² | - |
| 1777314344 | 32.78° C | 69% | 1016.6 hPa | 0 mm | - | 262 W/m² | - |
| 1777314041 | 31.67° C | 72% | 1016.7 hPa | 0 mm | - | 486 W/m² | - |
* Rain latest hour (hover to see other rain measurements)
** Current wind speed in m/s (hover to see current wind gust speed)